sensor_id;sensor_type;location;lat;lon;timestamp;temperature;humidity
42615;DHT22;28754;47.700;7.924;2023-12-14T00:02:03;4.60;99.90
42615;DHT22;28754;47.700;7.924;2023-12-14T00:04:50;4.50;99.90
42615;DHT22;28754;47.700;7.924;2023-12-14T00:07:36;4.50;99.90
42615;DHT22;28754;47.700;7.924;2023-12-14T00:10:23;4.60;99.90
42615;DHT22;28754;47.700;7.924;2023-12-14T00:13:10;4.70;99.90
42615;DHT22;28754;47.700;7.924;2023-12-14T00:15:57;4.70;99.90
42615;DHT22;28754;47.700;7.924;2023-12-14T00:18:44;4.60;99.90
42615;DHT22;28754;47.700;7.924;2023-12-14T00:21:30;4.60;99.90
42615;DHT22;28754;47.700;7.924;2023-12-14T00:24:17;4.70;99.90
42615;DHT22;28754;47.700;7.924;2023-12-14T00:27:04;4.60;99.90
42615;DHT22;28754;47.700;7.924;2023-12-14T00:29:51;4.70;99.90
42615;DHT22;28754;47.700;7.924;2023-12-14T00:32:37;4.70;99.90
42615;DHT22;28754;47.700;7.924;2023-12-14T00:35:24;4.70;99.90
42615;DHT22;28754;47.700;7.924;2023-12-14T00:38:10;4.70;99.90
42615;DHT22;28754;47.700;7.924;2023-12-14T00:40:57;4.80;99.90
42615;DHT22;28754;47.700;7.924;2023-12-14T00:43:44;4.70;99.90
42615;DHT22;28754;47.700;7.924;2023-12-14T00:46:30;4.70;99.90
42615;DHT22;28754;47.700;7.924;2023-12-14T00:49:17;4.70;99.90
42615;DHT22;28754;47.700;7.924;2023-12-14T00:52:05;4.60;99.90
42615;DHT22;28754;47.700;7.924;2023-12-14T00:54:52;4.70;99.90
42615;DHT22;28754;47.700;7.924;2023-12-14T00:57:39;4.60;99.90
42615;DHT22;28754;47.700;7.924;2023-12-14T01:00:25;4.80;99.90
42615;DHT22;28754;47.700;7.924;2023-12-14T01:03:12;4.70;99.90
42615;DHT22;28754;47.700;7.924;2023-12-14T01:05:59;4.60;99.90
42615;DHT22;28754;47.700;7.924;2023-12-14T01:08:46;4.70;99.90
42615;DHT22;28754;47.700;7.924;2023-12-14T01:11:32;4.70;99.90
42615;DHT22;28754;47.700;7.924;2023-12-14T01:14:19;4.70;99.90
42615;DHT22;28754;47.700;7.924;2023-12-14T01:17:06;4.70;99.90
42615;DHT22;28754;47.700;7.924;2023-12-14T01:19:52;4.70;99.90
42615;DHT22;28754;47.700;7.924;2023-12-14T01:22:39;4.70;99.90
42615;DHT22;28754;47.700;7.924;2023-12-14T01:25:25;4.80;99.90
42615;DHT22;28754;47.700;7.924;2023-12-14T01:28:12;4.70;99.90
42615;DHT22;28754;47.700;7.924;2023-12-14T01:31:00;4.70;99.90
42615;DHT22;28754;47.700;7.924;2023-12-14T01:33:46;4.70;99.90
42615;DHT22;28754;47.700;7.924;2023-12-14T01:36:33;4.70;99.90
42615;DHT22;28754;47.700;7.924;2023-12-14T01:39:20;4.70;99.90
42615;DHT22;28754;47.700;7.924;2023-12-14T01:42:06;4.70;99.90
42615;DHT22;28754;47.700;7.924;2023-12-14T01:44:53;4.60;99.90
42615;DHT22;28754;47.700;7.924;2023-12-14T01:47:40;4.50;99.90
42615;DHT22;28754;47.700;7.924;2023-12-14T01:50:26;4.50;99.90
42615;DHT22;28754;47.700;7.924;2023-12-14T01:53:13;4.50;99.90
42615;DHT22;28754;47.700;7.924;2023-12-14T01:56:00;4.50;99.90
42615;DHT22;28754;47.700;7.924;2023-12-14T01:58:46;4.60;99.90
42615;DHT22;28754;47.700;7.924;2023-12-14T02:01:47;4.60;99.90
42615;DHT22;28754;47.700;7.924;2023-12-14T02:04:39;4.60;99.90
42615;DHT22;28754;47.700;7.924;2023-12-14T02:07:26;4.60;99.90
42615;DHT22;28754;47.700;7.924;2023-12-14T02:10:12;4.60;99.90
42615;DHT22;28754;47.700;7.924;2023-12-14T02:13:01;4.60;99.90
42615;DHT22;28754;47.700;7.924;2023-12-14T02:15:49;4.50;99.90
42615;DHT22;28754;47.700;7.924;2023-12-14T02:18:36;4.60;99.90
42615;DHT22;28754;47.700;7.924;2023-12-14T02:21:23;4.50;99.90
42615;DHT22;28754;47.700;7.924;2023-12-14T02:24:10;4.50;99.90
42615;DHT22;28754;47.700;7.924;2023-12-14T02:26:57;4.60;99.90
42615;DHT22;28754;47.700;7.924;2023-12-14T02:29:44;4.60;99.90
42615;DHT22;28754;47.700;7.924;2023-12-14T02:32:30;4.60;99.90
42615;DHT22;28754;47.700;7.924;2023-12-14T02:35:17;4.70;99.90
42615;DHT22;28754;47.700;7.924;2023-12-14T02:38:04;4.60;99.90
42615;DHT22;28754;47.700;7.924;2023-12-14T02:40:51;4.60;99.90
42615;DHT22;28754;47.700;7.924;2023-12-14T02:43:38;4.60;99.90
42615;DHT22;28754;47.700;7.924;2023-12-14T02:46:26;4.70;99.90
42615;DHT22;28754;47.700;7.924;2023-12-14T02:49:13;4.70;99.90
42615;DHT22;28754;47.700;7.924;2023-12-14T02:52:00;4.60;99.90
42615;DHT22;28754;47.700;7.924;2023-12-14T02:54:46;4.70;99.90
42615;DHT22;28754;47.700;7.924;2023-12-14T02:57:33;4.60;99.90
42615;DHT22;28754;47.700;7.924;2023-12-14T03:00:20;4.60;99.90
42615;DHT22;28754;47.700;7.924;2023-12-14T03:03:06;4.60;99.90
42615;DHT22;28754;47.700;7.924;2023-12-14T03:05:54;4.60;99.90
42615;DHT22;28754;47.700;7.924;2023-12-14T03:08:41;4.60;99.90
42615;DHT22;28754;47.700;7.924;2023-12-14T03:11:28;4.70;99.90
42615;DHT22;28754;47.700;7.924;2023-12-14T03:14:14;4.60;99.90
42615;DHT22;28754;47.700;7.924;2023-12-14T03:17:01;4.70;99.90
42615;DHT22;28754;47.700;7.924;2023-12-14T03:19:48;4.70;99.90
42615;DHT22;28754;47.700;7.924;2023-12-14T03:22:35;4.70;99.90
42615;DHT22;28754;47.700;7.924;2023-12-14T03:25:21;4.70;99.90
42615;DHT22;28754;47.700;7.924;2023-12-14T03:28:08;4.70;99.90
42615;DHT22;28754;47.700;7.924;2023-12-14T03:30:55;4.70;99.90
42615;DHT22;28754;47.700;7.924;2023-12-14T03:33:42;4.80;99.90
42615;DHT22;28754;47.700;7.924;2023-12-14T03:36:29;4.70;99.90
42615;DHT22;28754;47.700;7.924;2023-12-14T03:39:16;4.70;99.90
42615;DHT22;28754;47.700;7.924;2023-12-14T03:42:03;4.80;99.90
42615;DHT22;28754;47.700;7.924;2023-12-14T03:44:50;4.80;99.90
42615;DHT22;28754;47.700;7.924;2023-12-14T03:47:37;4.80;99.90
42615;DHT22;28754;47.700;7.924;2023-12-14T03:50:23;4.80;99.90
42615;DHT22;28754;47.700;7.924;2023-12-14T03:53:10;4.60;99.90
42615;DHT22;28754;47.700;7.924;2023-12-14T03:55:58;4.60;99.90
42615;DHT22;28754;47.700;7.924;2023-12-14T03:58:45;4.60;99.90
42615;DHT22;28754;47.700;7.924;2023-12-14T04:01:31;4.70;99.90
42615;DHT22;28754;47.700;7.924;2023-12-14T04:04:19;4.60;99.90
42615;DHT22;28754;47.700;7.924;2023-12-14T04:07:06;4.70;99.90
42615;DHT22;28754;47.700;7.924;2023-12-14T04:09:53;4.60;99.90
42615;DHT22;28754;47.700;7.924;2023-12-14T04:12:39;4.70;99.90
42615;DHT22;28754;47.700;7.924;2023-12-14T04:15:26;4.80;99.90
42615;DHT22;28754;47.700;7.924;2023-12-14T04:18:14;4.70;99.90
42615;DHT22;28754;47.700;7.924;2023-12-14T04:21:00;4.70;99.90
42615;DHT22;28754;47.700;7.924;2023-12-14T04:23:47;4.70;99.90
42615;DHT22;28754;47.700;7.924;2023-12-14T04:26:34;4.80;99.90
42615;DHT22;28754;47.700;7.924;2023-12-14T04:29:20;4.80;99.90
42615;DHT22;28754;47.700;7.924;2023-12-14T04:32:07;4.80;99.90
42615;DHT22;28754;47.700;7.924;2023-12-14T04:34:54;4.80;99.90
42615;DHT22;28754;47.700;7.924;2023-12-14T04:37:41;4.80;99.90
42615;DHT22;28754;47.700;7.924;2023-12-14T04:40:28;4.80;99.90
42615;DHT22;28754;47.700;7.924;2023-12-14T04:43:14;4.80;99.90
42615;DHT22;28754;47.700;7.924;2023-12-14T04:46:01;4.70;99.90
42615;DHT22;28754;47.700;7.924;2023-12-14T04:48:48;4.70;99.90
42615;DHT22;28754;47.700;7.924;2023-12-14T04:51:35;4.70;99.90
42615;DHT22;28754;47.700;7.924;2023-12-14T04:54:22;4.70;99.90
42615;DHT22;28754;47.700;7.924;2023-12-14T04:57:08;4.80;99.90
42615;DHT22;28754;47.700;7.924;2023-12-14T04:59:55;4.80;99.90
42615;DHT22;28754;47.700;7.924;2023-12-14T05:02:46;4.80;99.90
42615;DHT22;28754;47.700;7.924;2023-12-14T05:05:34;4.80;99.90
42615;DHT22;28754;47.700;7.924;2023-12-14T05:08:21;4.80;99.90
42615;DHT22;28754;47.700;7.924;2023-12-14T05:11:07;4.90;99.90
42615;DHT22;28754;47.700;7.924;2023-12-14T05:13:54;4.80;99.90
42615;DHT22;28754;47.700;7.924;2023-12-14T05:16:41;4.80;99.90
42615;DHT22;28754;47.700;7.924;2023-12-14T05:19:27;4.90;99.90
42615;DHT22;28754;47.700;7.924;2023-12-14T05:22:14;4.90;99.90
42615;DHT22;28754;47.700;7.924;2023-12-14T05:25:00;4.80;99.90
42615;DHT22;28754;47.700;7.924;2023-12-14T05:27:47;4.90;99.90
42615;DHT22;28754;47.700;7.924;2023-12-14T05:30:34;4.90;99.90
42615;DHT22;28754;47.700;7.924;2023-12-14T05:33:20;4.80;99.90
42615;DHT22;28754;47.700;7.924;2023-12-14T05:36:07;4.80;99.90
42615;DHT22;28754;47.700;7.924;2023-12-14T05:38:56;4.80;99.90
42615;DHT22;28754;47.700;7.924;2023-12-14T05:41:44;4.80;99.90
42615;DHT22;28754;47.700;7.924;2023-12-14T05:44:30;4.80;99.90
42615;DHT22;28754;47.700;7.924;2023-12-14T05:47:17;4.90;99.90
42615;DHT22;28754;47.700;7.924;2023-12-14T05:50:04;4.80;99.90
42615;DHT22;28754;47.700;7.924;2023-12-14T05:52:51;4.90;99.90
42615;DHT22;28754;47.700;7.924;2023-12-14T05:55:38;4.80;99.90
42615;DHT22;28754;47.700;7.924;2023-12-14T05:58:26;4.90;99.90
42615;DHT22;28754;47.700;7.924;2023-12-14T06:01:12;4.90;99.90
42615;DHT22;28754;47.700;7.924;2023-12-14T06:03:59;4.90;99.90
42615;DHT22;28754;47.700;7.924;2023-12-14T06:06:46;4.90;99.90
42615;DHT22;28754;47.700;7.924;2023-12-14T06:09:34;4.80;99.90
42615;DHT22;28754;47.700;7.924;2023-12-14T06:12:21;4.90;99.90
42615;DHT22;28754;47.700;7.924;2023-12-14T06:15:08;4.90;99.90
42615;DHT22;28754;47.700;7.924;2023-12-14T06:17:55;4.90;99.90
42615;DHT22;28754;47.700;7.924;2023-12-14T06:20:41;4.80;99.90
42615;DHT22;28754;47.700;7.924;2023-12-14T06:23:28;4.90;99.90
42615;DHT22;28754;47.700;7.924;2023-12-14T06:26:15;4.90;99.90
42615;DHT22;28754;47.700;7.924;2023-12-14T06:29:01;4.90;99.90
42615;DHT22;28754;47.700;7.924;2023-12-14T06:31:48;4.80;99.90
42615;DHT22;28754;47.700;7.924;2023-12-14T06:34:35;4.80;99.90
42615;DHT22;28754;47.700;7.924;2023-12-14T06:37:22;4.90;99.90
42615;DHT22;28754;47.700;7.924;2023-12-14T06:40:09;4.90;99.90
42615;DHT22;28754;47.700;7.924;2023-12-14T06:42:56;4.90;99.90
42615;DHT22;28754;47.700;7.924;2023-12-14T06:45:43;4.90;99.90
42615;DHT22;28754;47.700;7.924;2023-12-14T06:48:30;4.90;99.90
42615;DHT22;28754;47.700;7.924;2023-12-14T06:51:16;4.80;99.90
42615;DHT22;28754;47.700;7.924;2023-12-14T06:54:03;4.70;99.90
42615;DHT22;28754;47.700;7.924;2023-12-14T06:56:50;4.80;99.90
42615;DHT22;28754;47.700;7.924;2023-12-14T06:59:36;4.80;99.90
42615;DHT22;28754;47.700;7.924;2023-12-14T07:02:23;4.80;99.90
42615;DHT22;28754;47.700;7.924;2023-12-14T07:05:10;4.80;99.90
42615;DHT22;28754;47.700;7.924;2023-12-14T07:07:56;4.70;99.90
42615;DHT22;28754;47.700;7.924;2023-12-14T07:10:43;4.50;99.90
42615;DHT22;28754;47.700;7.924;2023-12-14T07:13:30;4.30;99.90
42615;DHT22;28754;47.700;7.924;2023-12-14T07:16:16;4.20;99.90
42615;DHT22;28754;47.700;7.924;2023-12-14T07:19:04;4.30;99.90
42615;DHT22;28754;47.700;7.924;2023-12-14T07:21:50;4.20;99.90
42615;DHT22;28754;47.700;7.924;2023-12-14T07:24:37;4.40;99.90
42615;DHT22;28754;47.700;7.924;2023-12-14T07:27:24;4.40;99.90
42615;DHT22;28754;47.700;7.924;2023-12-14T07:30:11;4.50;99.90
42615;DHT22;28754;47.700;7.924;2023-12-14T07:32:57;4.50;99.90
42615;DHT22;28754;47.700;7.924;2023-12-14T07:35:44;4.50;99.90
42615;DHT22;28754;47.700;7.924;2023-12-14T07:38:31;4.50;99.90
42615;DHT22;28754;47.700;7.924;2023-12-14T07:41:18;4.60;99.90
42615;DHT22;28754;47.700;7.924;2023-12-14T07:44:04;4.60;99.90
42615;DHT22;28754;47.700;7.924;2023-12-14T07:46:51;4.50;99.90
42615;DHT22;28754;47.700;7.924;2023-12-14T07:49:38;4.40;99.90
42615;DHT22;28754;47.700;7.924;2023-12-14T07:52:25;4.40;99.90
42615;DHT22;28754;47.700;7.924;2023-12-14T07:55:11;4.40;99.90
42615;DHT22;28754;47.700;7.924;2023-12-14T07:58:01;4.50;99.90
42615;DHT22;28754;47.700;7.924;2023-12-14T08:00:47;4.50;99.90
42615;DHT22;28754;47.700;7.924;2023-12-14T08:03:35;4.40;99.90
42615;DHT22;28754;47.700;7.924;2023-12-14T08:06:22;4.40;99.90
42615;DHT22;28754;47.700;7.924;2023-12-14T08:09:09;4.30;99.90
42615;DHT22;28754;47.700;7.924;2023-12-14T08:11:56;4.30;99.90
42615;DHT22;28754;47.700;7.924;2023-12-14T08:14:43;4.40;99.90
42615;DHT22;28754;47.700;7.924;2023-12-14T08:17:30;4.40;99.90
42615;DHT22;28754;47.700;7.924;2023-12-14T08:20:16;4.50;99.90
42615;DHT22;28754;47.700;7.924;2023-12-14T08:23:03;4.50;99.90
42615;DHT22;28754;47.700;7.924;2023-12-14T08:25:50;4.50;99.90
42615;DHT22;28754;47.700;7.924;2023-12-14T08:28:36;4.50;99.90
42615;DHT22;28754;47.700;7.924;2023-12-14T08:31:23;4.50;99.90
42615;DHT22;28754;47.700;7.924;2023-12-14T08:34:10;4.60;99.90
42615;DHT22;28754;47.700;7.924;2023-12-14T08:36:56;4.70;99.90
42615;DHT22;28754;47.700;7.924;2023-12-14T08:39:43;4.70;99.90
42615;DHT22;28754;47.700;7.924;2023-12-14T08:42:30;4.60;99.90
42615;DHT22;28754;47.700;7.924;2023-12-14T08:45:17;4.60;99.90
42615;DHT22;28754;47.700;7.924;2023-12-14T08:48:04;4.50;99.90
42615;DHT22;28754;47.700;7.924;2023-12-14T08:50:53;4.50;99.90
42615;DHT22;28754;47.700;7.924;2023-12-14T08:53:41;4.60;99.90
42615;DHT22;28754;47.700;7.924;2023-12-14T08:56:28;4.60;99.90
42615;DHT22;28754;47.700;7.924;2023-12-14T08:59:14;4.60;99.90
42615;DHT22;28754;47.700;7.924;2023-12-14T09:02:01;4.60;99.90
42615;DHT22;28754;47.700;7.924;2023-12-14T09:04:48;4.60;99.90
42615;DHT22;28754;47.700;7.924;2023-12-14T09:07:34;4.60;99.90
42615;DHT22;28754;47.700;7.924;2023-12-14T09:10:21;4.60;99.90
42615;DHT22;28754;47.700;7.924;2023-12-14T09:13:08;4.70;99.90
42615;DHT22;28754;47.700;7.924;2023-12-14T09:15:55;4.70;99.90
42615;DHT22;28754;47.700;7.924;2023-12-14T09:18:42;4.70;99.90
42615;DHT22;28754;47.700;7.924;2023-12-14T09:21:29;4.80;99.90
42615;DHT22;28754;47.700;7.924;2023-12-14T09:24:15;4.80;99.90
42615;DHT22;28754;47.700;7.924;2023-12-14T09:27:02;4.80;99.90
42615;DHT22;28754;47.700;7.924;2023-12-14T09:29:49;4.80;99.90
42615;DHT22;28754;47.700;7.924;2023-12-14T09:32:36;4.80;99.90
42615;DHT22;28754;47.700;7.924;2023-12-14T09:35:22;4.70;99.90
42615;DHT22;28754;47.700;7.924;2023-12-14T09:38:09;4.70;99.90
42615;DHT22;28754;47.700;7.924;2023-12-14T09:40:57;4.80;99.90
42615;DHT22;28754;47.700;7.924;2023-12-14T09:43:45;4.80;99.90
42615;DHT22;28754;47.700;7.924;2023-12-14T09:46:34;4.90;99.90
42615;DHT22;28754;47.700;7.924;2023-12-14T09:49:23;4.90;99.90
42615;DHT22;28754;47.700;7.924;2023-12-14T09:52:15;4.90;99.90
42615;DHT22;28754;47.700;7.924;2023-12-14T09:55:02;4.90;99.90
42615;DHT22;28754;47.700;7.924;2023-12-14T09:57:50;5.00;99.90
42615;DHT22;28754;47.700;7.924;2023-12-14T10:00:38;5.00;99.90
42615;DHT22;28754;47.700;7.924;2023-12-14T10:03:28;5.10;99.90
42615;DHT22;28754;47.700;7.924;2023-12-14T10:06:15;5.30;99.90
42615;DHT22;28754;47.700;7.924;2023-12-14T10:09:01;5.20;99.90
42615;DHT22;28754;47.700;7.924;2023-12-14T10:11:49;5.10;99.90
42615;DHT22;28754;47.700;7.924;2023-12-14T10:15:00;5.10;99.90
42615;DHT22;28754;47.700;7.924;2023-12-14T10:17:51;5.00;99.90
42615;DHT22;28754;47.700;7.924;2023-12-14T10:20:40;5.10;99.90
42615;DHT22;28754;47.700;7.924;2023-12-14T10:23:29;5.00;99.90
42615;DHT22;28754;47.700;7.924;2023-12-14T10:26:16;5.00;99.90
42615;DHT22;28754;47.700;7.924;2023-12-14T10:29:03;5.00;99.90
42615;DHT22;28754;47.700;7.924;2023-12-14T10:31:51;4.90;99.90
42615;DHT22;28754;47.700;7.924;2023-12-14T10:34:38;4.90;99.90
42615;DHT22;28754;47.700;7.924;2023-12-14T10:37:29;4.90;99.90
42615;DHT22;28754;47.700;7.924;2023-12-14T10:40:17;4.90;99.90
42615;DHT22;28754;47.700;7.924;2023-12-14T10:43:04;4.80;99.90
42615;DHT22;28754;47.700;7.924;2023-12-14T10:45:51;4.70;99.90
42615;DHT22;28754;47.700;7.924;2023-12-14T10:48:40;4.80;99.90
42615;DHT22;28754;47.700;7.924;2023-12-14T10:51:30;4.80;99.90
42615;DHT22;28754;47.700;7.924;2023-12-14T10:54:19;5.00;99.90
42615;DHT22;28754;47.700;7.924;2023-12-14T10:57:06;4.90;99.90
42615;DHT22;28754;47.700;7.924;2023-12-14T10:59:58;5.00;99.90
42615;DHT22;28754;47.700;7.924;2023-12-14T11:02:46;4.90;99.90
42615;DHT22;28754;47.700;7.924;2023-12-14T11:05:34;4.90;99.90
42615;DHT22;28754;47.700;7.924;2023-12-14T11:08:22;4.90;99.90
42615;DHT22;28754;47.700;7.924;2023-12-14T11:11:09;5.00;99.90
42615;DHT22;28754;47.700;7.924;2023-12-14T11:13:59;5.00;99.90
42615;DHT22;28754;47.700;7.924;2023-12-14T11:16:47;5.10;99.90
42615;DHT22;28754;47.700;7.924;2023-12-14T11:19:36;5.00;99.90
42615;DHT22;28754;47.700;7.924;2023-12-14T11:22:24;5.00;99.90
42615;DHT22;28754;47.700;7.924;2023-12-14T11:25:13;5.10;99.90
42615;DHT22;28754;47.700;7.924;2023-12-14T11:28:10;5.10;99.90
42615;DHT22;28754;47.700;7.924;2023-12-14T11:30:56;5.10;99.90
42615;DHT22;28754;47.700;7.924;2023-12-14T11:33:43;5.10;99.90
42615;DHT22;28754;47.700;7.924;2023-12-14T11:36:30;5.20;99.90
42615;DHT22;28754;47.700;7.924;2023-12-14T11:39:18;5.10;99.90
42615;DHT22;28754;47.700;7.924;2023-12-14T11:42:07;5.00;99.90
42615;DHT22;28754;47.700;7.924;2023-12-14T11:44:56;5.00;99.90
42615;DHT22;28754;47.700;7.924;2023-12-14T11:47:43;5.10;99.90
42615;DHT22;28754;47.700;7.924;2023-12-14T11:50:30;5.30;99.90
42615;DHT22;28754;47.700;7.924;2023-12-14T11:53:16;5.40;99.90
42615;DHT22;28754;47.700;7.924;2023-12-14T11:56:05;5.40;99.90
42615;DHT22;28754;47.700;7.924;2023-12-14T11:58:52;5.40;99.90
42615;DHT22;28754;47.700;7.924;2023-12-14T12:01:56;5.30;99.90
42615;DHT22;28754;47.700;7.924;2023-12-14T12:04:50;5.60;99.90
42615;DHT22;28754;47.700;7.924;2023-12-14T12:07:40;6.10;99.90
42615;DHT22;28754;47.700;7.924;2023-12-14T12:10:30;6.20;99.90
42615;DHT22;28754;47.700;7.924;2023-12-14T12:13:19;6.20;99.90
42615;DHT22;28754;47.700;7.924;2023-12-14T12:16:06;6.00;99.90
42615;DHT22;28754;47.700;7.924;2023-12-14T12:18:53;5.80;99.90
42615;DHT22;28754;47.700;7.924;2023-12-14T12:21:40;5.60;99.90
42615;DHT22;28754;47.700;7.924;2023-12-14T12:24:26;5.60;99.90
42615;DHT22;28754;47.700;7.924;2023-12-14T12:27:13;5.50;99.90
42615;DHT22;28754;47.700;7.924;2023-12-14T12:30:00;5.40;99.90
42615;DHT22;28754;47.700;7.924;2023-12-14T12:32:47;5.60;99.90
42615;DHT22;28754;47.700;7.924;2023-12-14T12:35:33;5.70;99.90
42615;DHT22;28754;47.700;7.924;2023-12-14T12:38:21;5.70;99.90
42615;DHT22;28754;47.700;7.924;2023-12-14T12:41:07;5.50;99.90
42615;DHT22;28754;47.700;7.924;2023-12-14T12:43:54;5.50;99.90
42615;DHT22;28754;47.700;7.924;2023-12-14T12:46:41;5.40;99.90
42615;DHT22;28754;47.700;7.924;2023-12-14T12:49:28;5.40;99.90
42615;DHT22;28754;47.700;7.924;2023-12-14T12:52:14;5.20;99.90
42615;DHT22;28754;47.700;7.924;2023-12-14T12:55:01;5.10;99.90
42615;DHT22;28754;47.700;7.924;2023-12-14T12:57:49;5.10;99.90
42615;DHT22;28754;47.700;7.924;2023-12-14T13:00:35;5.10;99.90
42615;DHT22;28754;47.700;7.924;2023-12-14T13:03:24;5.10;99.90
42615;DHT22;28754;47.700;7.924;2023-12-14T13:06:10;5.00;99.90
42615;DHT22;28754;47.700;7.924;2023-12-14T13:08:57;5.10;99.90
42615;DHT22;28754;47.700;7.924;2023-12-14T13:11:45;5.10;99.90
42615;DHT22;28754;47.700;7.924;2023-12-14T13:14:32;5.20;99.90
42615;DHT22;28754;47.700;7.924;2023-12-14T13:17:19;5.20;99.90
42615;DHT22;28754;47.700;7.924;2023-12-14T13:20:06;5.10;99.90
42615;DHT22;28754;47.700;7.924;2023-12-14T13:22:53;5.00;99.90
42615;DHT22;28754;47.700;7.924;2023-12-14T13:25:40;5.00;99.90
42615;DHT22;28754;47.700;7.924;2023-12-14T13:28:26;5.10;99.90
42615;DHT22;28754;47.700;7.924;2023-12-14T13:31:13;5.00;99.90
42615;DHT22;28754;47.700;7.924;2023-12-14T13:34:00;5.00;99.90
42615;DHT22;28754;47.700;7.924;2023-12-14T13:36:46;5.00;99.90
42615;DHT22;28754;47.700;7.924;2023-12-14T13:39:33;5.10;99.90
42615;DHT22;28754;47.700;7.924;2023-12-14T13:42:21;5.10;99.90
42615;DHT22;28754;47.700;7.924;2023-12-14T13:45:08;5.30;99.90
42615;DHT22;28754;47.700;7.924;2023-12-14T13:47:55;5.30;99.90
42615;DHT22;28754;47.700;7.924;2023-12-14T13:50:41;5.50;99.90
42615;DHT22;28754;47.700;7.924;2023-12-14T13:53:28;5.70;99.90
42615;DHT22;28754;47.700;7.924;2023-12-14T13:56:15;5.70;99.90
42615;DHT22;28754;47.700;7.924;2023-12-14T13:59:01;5.90;99.90
42615;DHT22;28754;47.700;7.924;2023-12-14T14:01:48;5.80;99.90
42615;DHT22;28754;47.700;7.924;2023-12-14T14:04:37;5.80;99.90
42615;DHT22;28754;47.700;7.924;2023-12-14T14:07:24;5.90;99.90
42615;DHT22;28754;47.700;7.924;2023-12-14T14:10:11;5.70;99.90
42615;DHT22;28754;47.700;7.924;2023-12-14T14:12:57;5.60;99.90
42615;DHT22;28754;47.700;7.924;2023-12-14T14:15:44;5.50;99.90
42615;DHT22;28754;47.700;7.924;2023-12-14T14:18:31;5.40;99.90
42615;DHT22;28754;47.700;7.924;2023-12-14T14:21:17;5.30;99.90
42615;DHT22;28754;47.700;7.924;2023-12-14T14:24:04;5.30;99.90
42615;DHT22;28754;47.700;7.924;2023-12-14T14:26:52;5.20;99.90
42615;DHT22;28754;47.700;7.924;2023-12-14T14:29:38;5.10;99.90
42615;DHT22;28754;47.700;7.924;2023-12-14T14:32:25;5.10;99.90
42615;DHT22;28754;47.700;7.924;2023-12-14T14:35:12;5.10;99.90
42615;DHT22;28754;47.700;7.924;2023-12-14T14:37:59;5.00;99.90
42615;DHT22;28754;47.700;7.924;2023-12-14T14:40:47;5.00;99.90
42615;DHT22;28754;47.700;7.924;2023-12-14T14:43:34;5.00;99.90
42615;DHT22;28754;47.700;7.924;2023-12-14T14:46:20;5.00;99.90
42615;DHT22;28754;47.700;7.924;2023-12-14T14:49:07;5.00;99.90
42615;DHT22;28754;47.700;7.924;2023-12-14T14:51:54;5.10;99.90
42615;DHT22;28754;47.700;7.924;2023-12-14T14:54:40;5.10;99.90
42615;DHT22;28754;47.700;7.924;2023-12-14T14:57:27;5.10;99.90
42615;DHT22;28754;47.700;7.924;2023-12-14T15:00:14;5.20;99.90
42615;DHT22;28754;47.700;7.924;2023-12-14T15:03:02;5.30;99.90
42615;DHT22;28754;47.700;7.924;2023-12-14T15:05:50;5.30;99.90
42615;DHT22;28754;47.700;7.924;2023-12-14T15:08:37;5.30;99.90
42615;DHT22;28754;47.700;7.924;2023-12-14T15:11:23;5.20;99.90
42615;DHT22;28754;47.700;7.924;2023-12-14T15:14:10;5.20;99.90
42615;DHT22;28754;47.700;7.924;2023-12-14T15:16:57;5.20;99.90
42615;DHT22;28754;47.700;7.924;2023-12-14T15:19:44;5.10;99.90
42615;DHT22;28754;47.700;7.924;2023-12-14T15:22:32;5.10;99.90
42615;DHT22;28754;47.700;7.924;2023-12-14T15:25:21;5.00;99.90
42615;DHT22;28754;47.700;7.924;2023-12-14T15:28:07;5.00;99.90
42615;DHT22;28754;47.700;7.924;2023-12-14T15:30:55;5.00;99.90
42615;DHT22;28754;47.700;7.924;2023-12-14T15:33:41;4.90;99.90
42615;DHT22;28754;47.700;7.924;2023-12-14T15:36:28;4.80;99.90
42615;DHT22;28754;47.700;7.924;2023-12-14T15:39:16;4.70;99.90
42615;DHT22;28754;47.700;7.924;2023-12-14T15:42:03;4.70;99.90
42615;DHT22;28754;47.700;7.924;2023-12-14T15:44:50;4.70;99.90
42615;DHT22;28754;47.700;7.924;2023-12-14T15:47:37;4.70;99.90
42615;DHT22;28754;47.700;7.924;2023-12-14T15:50:23;4.70;99.90
42615;DHT22;28754;47.700;7.924;2023-12-14T15:53:10;4.80;99.90
42615;DHT22;28754;47.700;7.924;2023-12-14T15:55:57;4.90;99.90
42615;DHT22;28754;47.700;7.924;2023-12-14T15:58:44;4.90;99.90
42615;DHT22;28754;47.700;7.924;2023-12-14T16:01:31;4.90;99.90
42615;DHT22;28754;47.700;7.924;2023-12-14T16:08:28;5.00;99.90
42615;DHT22;28754;47.700;7.924;2023-12-14T16:11:14;4.90;99.90
42615;DHT22;28754;47.700;7.924;2023-12-14T16:14:01;4.90;99.90
42615;DHT22;28754;47.700;7.924;2023-12-14T16:16:48;5.00;99.90
42615;DHT22;28754;47.700;7.924;2023-12-14T16:19:34;4.90;99.90
42615;DHT22;28754;47.700;7.924;2023-12-14T16:22:21;4.90;99.90
42615;DHT22;28754;47.700;7.924;2023-12-14T16:25:08;4.80;99.90
42615;DHT22;28754;47.700;7.924;2023-12-14T16:27:58;4.60;99.90
42615;DHT22;28754;47.700;7.924;2023-12-14T16:30:45;4.60;99.90
42615;DHT22;28754;47.700;7.924;2023-12-14T16:33:32;4.50;99.90
42615;DHT22;28754;47.700;7.924;2023-12-14T16:36:19;4.50;99.90
42615;DHT22;28754;47.700;7.924;2023-12-14T16:39:06;4.50;99.90
42615;DHT22;28754;47.700;7.924;2023-12-14T16:41:56;4.50;99.90
42615;DHT22;28754;47.700;7.924;2023-12-14T16:44:42;4.50;99.90
42615;DHT22;28754;47.700;7.924;2023-12-14T16:47:30;4.40;99.90
42615;DHT22;28754;47.700;7.924;2023-12-14T16:50:17;4.50;99.90
42615;DHT22;28754;47.700;7.924;2023-12-14T16:53:04;4.40;99.90
42615;DHT22;28754;47.700;7.924;2023-12-14T16:55:55;4.50;99.90
42615;DHT22;28754;47.700;7.924;2023-12-14T16:58:45;4.50;99.90
42615;DHT22;28754;47.700;7.924;2023-12-14T17:01:32;4.40;99.90
42615;DHT22;28754;47.700;7.924;2023-12-14T17:04:18;4.50;99.90
42615;DHT22;28754;47.700;7.924;2023-12-14T17:07:05;4.60;99.90
42615;DHT22;28754;47.700;7.924;2023-12-14T17:09:52;4.70;99.90
42615;DHT22;28754;47.700;7.924;2023-12-14T17:12:39;4.70;99.90
42615;DHT22;28754;47.700;7.924;2023-12-14T17:15:25;4.80;99.90
42615;DHT22;28754;47.700;7.924;2023-12-14T17:18:12;4.80;99.90
42615;DHT22;28754;47.700;7.924;2023-12-14T17:20:59;4.80;99.90
42615;DHT22;28754;47.700;7.924;2023-12-14T17:23:46;4.70;99.90
42615;DHT22;28754;47.700;7.924;2023-12-14T17:26:33;4.60;99.90
42615;DHT22;28754;47.700;7.924;2023-12-14T17:29:19;4.60;99.90
42615;DHT22;28754;47.700;7.924;2023-12-14T17:32:06;4.60;99.90
42615;DHT22;28754;47.700;7.924;2023-12-14T17:34:53;4.60;99.90
42615;DHT22;28754;47.700;7.924;2023-12-14T17:37:39;4.70;99.90
42615;DHT22;28754;47.700;7.924;2023-12-14T17:40:26;4.70;99.90
42615;DHT22;28754;47.700;7.924;2023-12-14T17:43:13;4.70;99.90
42615;DHT22;28754;47.700;7.924;2023-12-14T17:46:01;4.60;99.90
42615;DHT22;28754;47.700;7.924;2023-12-14T17:48:48;4.70;99.90
42615;DHT22;28754;47.700;7.924;2023-12-14T17:51:39;4.70;99.90
42615;DHT22;28754;47.700;7.924;2023-12-14T17:54:27;4.70;99.90
42615;DHT22;28754;47.700;7.924;2023-12-14T17:57:13;4.70;99.90